OIZI  Iran Shahr Airport

Add Bookmark

Iran

Status
Operational
Latitude Longitude
27° 14' 9" N 60° 43' 12" E
27.236099 60.720001
Local (DST + 5) UTC (GMT + 4)
Oct 24, 2014 12:44 Oct 23, 2014 21:14
Sunrise-Sunset Local UTC
Begin Civil Twilight 05:07 01:37
Sunrise 05:31 02:01
Sunset 04:51 13:21
End Civil Twilight 05:15 13:45

Current Weather

METAR Observed VFR
OIZI 232000Z 00000KT CAVOK 24/04 Q1015 Thu, Oct 23, 2014 @ 20:00 UTC
(1 Hour, 14 Minutes ago)
Visual Flight Rules
Wind Visibility Clouds Conditions
Calm 10 km or more
  • Clear skies
  • No significant weather
Temperatures Readings Precipitation
Current Temp 24°C (75°F)
Dewpoint 4°C (39°F)
Humidity 27%
Altimeter 29.97"Hg
Sea Level Pressure 1015mb
Field Elevation 1938.98'
None Recorded

24 Hour Weather History

Loading
-

24 Hour Weather Graphs

Loading
-

CheckWX.com is intended as a tool to help pilots better visualize weather data. It is not intended as a substitute for an official weather briefing obtained from a Flight Service Station. CheckWX.com does not meet the FAA requirements for an official pre-flight weather briefing. Therefore, it's important that pilots still call and obtain an official FSS pre-flight weather briefing.